createdAt,value
2022-11-24T00:01:31.212Z,97520.84
2022-11-24T00:04:03.346Z,97524.34
2022-11-24T00:06:33.367Z,97517.63
2022-11-24T00:09:02.200Z,97525.63
2022-11-24T00:11:33.198Z,97520.31
2022-11-24T00:14:02.557Z,97530.06
2022-11-24T00:16:33.298Z,97524.94
2022-11-24T00:19:06.602Z,97538.75
2022-11-24T00:21:35.036Z,97536.31
2022-11-24T00:24:03.900Z,97531.50
2022-11-24T00:26:34.556Z,97531.69
2022-11-24T00:29:07.557Z,97532.75
2022-11-24T00:31:38.155Z,97537.81
2022-11-24T00:34:11.483Z,97545.56
2022-11-24T00:36:40.829Z,97543.22
2022-11-24T00:39:13.096Z,97544.81
2022-11-24T00:41:42.020Z,97551.84
2022-11-24T00:44:10.830Z,97556.50
2022-11-24T00:46:39.634Z,97555.63
2022-11-24T00:49:09.540Z,97558.19
2022-11-24T00:51:38.779Z,97568.38
2022-11-24T00:54:07.292Z,97566.72
2022-11-24T00:56:35.704Z,97561.63
2022-11-24T00:59:04.339Z,97572.53
2022-11-24T01:01:32.658Z,97569.19
2022-11-24T01:04:02.348Z,97579.41
2022-11-24T01:06:35.623Z,97579.31
2022-11-24T01:09:05.119Z,97580.06
2022-11-24T01:11:56.077Z,97587.59
2022-11-24T01:14:26.076Z,97578.25
2022-11-24T01:16:55.383Z,97589.91
2022-11-24T01:19:24.245Z,97590.72
2022-11-24T01:21:54.079Z,97590.63
2022-11-24T01:24:22.499Z,97600.00
2022-11-24T01:26:51.133Z,97607.53
2022-11-24T01:29:19.554Z,97602.56
2022-11-24T01:31:47.881Z,97601.66
2022-11-24T01:34:16.272Z,97593.97
2022-11-24T01:36:44.713Z,97608.53
2022-11-24T01:39:14.385Z,97605.28
2022-11-24T01:41:43.246Z,97609.34
2022-11-24T01:44:26.800Z,97601.34
2022-11-24T01:46:59.044Z,97609.81
2022-11-24T01:49:37.922Z,97598.69
2022-11-24T01:52:10.501Z,97607.72
2022-11-24T01:54:45.738Z,97610.88
2022-11-24T01:57:20.904Z,97621.00
2022-11-24T01:59:53.113Z,97615.88
2022-11-24T02:02:29.873Z,97617.53
2022-11-24T02:05:00.996Z,97624.44
2022-11-24T02:07:29.551Z,97629.75
2022-11-24T02:10:04.632Z,97632.31
2022-11-24T02:12:33.541Z,97628.84
2022-11-24T02:15:02.495Z,97629.78
2022-11-24T02:17:30.936Z,97629.56
2022-11-24T02:20:01.065Z,97631.25
2022-11-24T02:22:37.707Z,97625.31
2022-11-24T02:25:18.143Z,97633.03
2022-11-24T02:27:53.475Z,97630.25
2022-11-24T02:30:22.691Z,97638.94
2022-11-24T02:32:52.437Z,97639.69
2022-11-24T02:35:21.426Z,97643.31
2022-11-24T02:37:49.819Z,97639.69
2022-11-24T02:40:25.581Z,97649.34
2022-11-24T02:42:59.246Z,97643.44
2022-11-24T02:45:29.031Z,97643.44
2022-11-24T02:47:57.326Z,97643.41
2022-11-24T02:50:25.647Z,97635.91
2022-11-24T02:52:54.019Z,97636.97
2022-11-24T02:55:23.486Z,97633.63
2022-11-24T02:57:51.963Z,97638.16
2022-11-24T03:00:22.453Z,97639.03
2022-11-24T03:02:50.807Z,97641.78
2022-11-24T03:05:19.494Z,97646.47
2022-11-24T03:07:47.864Z,97646.78
2022-11-24T03:10:17.138Z,97655.28
2022-11-24T03:12:45.426Z,97656.50
2022-11-24T03:15:13.945Z,97658.00
2022-11-24T03:17:43.707Z,97659.94
2022-11-24T03:20:13.983Z,97663.38
2022-11-24T03:22:42.567Z,97667.91
2022-11-24T03:25:11.421Z,97669.41
2022-11-24T03:27:39.848Z,97669.53
2022-11-24T03:30:09.712Z,97673.28
2022-11-24T03:32:38.175Z,97677.56
2022-11-24T03:35:09.098Z,97678.41
2022-11-24T03:37:37.389Z,97674.28
2022-11-24T03:40:07.320Z,97673.56
2022-11-24T03:42:35.619Z,97677.88
2022-11-24T03:45:29.857Z,97678.63
2022-11-24T03:47:53.098Z,97691.50
2022-11-24T03:50:22.880Z,97695.03
2022-11-24T03:52:51.192Z,97699.25
2022-11-24T03:55:19.476Z,97700.84
2022-11-24T03:57:48.043Z,97705.97
2022-11-24T04:00:17.884Z,97697.59
2022-11-24T04:02:46.187Z,97706.09
2022-11-24T04:05:14.570Z,97701.81
2022-11-24T04:07:44.190Z,97708.03
2022-11-24T04:10:12.541Z,97711.56
2022-11-24T04:12:45.633Z,97709.69
2022-11-24T04:15:16.979Z,97716.34
2022-11-24T04:17:45.710Z,97705.69
2022-11-24T04:20:15.117Z,97709.97
2022-11-24T04:22:45.356Z,97715.09
2022-11-24T04:25:17.288Z,97713.88
2022-11-24T04:27:45.679Z,97716.56
2022-11-24T04:30:14.158Z,97723.41
2022-11-24T04:32:42.502Z,97728.41
2022-11-24T04:35:11.183Z,97736.69
2022-11-24T04:37:39.861Z,97738.47
2022-11-24T04:40:12.145Z,97736.59
2022-11-24T04:42:40.747Z,97739.25
2022-11-24T04:45:10.288Z,97744.41
2022-11-24T04:47:38.804Z,97740.19
2022-11-24T04:50:08.659Z,97739.91
2022-11-24T04:52:37.198Z,97731.56
2022-11-24T04:55:05.971Z,97728.91
2022-11-24T04:57:35.897Z,97735.81
2022-11-24T05:00:05.280Z,97734.94
2022-11-24T05:02:33.519Z,97736.72
2022-11-24T05:05:01.882Z,97744.53
2022-11-24T05:07:31.643Z,97745.31
2022-11-24T05:10:17.695Z,97741.16
2022-11-24T05:12:55.031Z,97749.63
2022-11-24T05:15:23.976Z,97747.09
2022-11-24T05:17:52.415Z,97755.69
2022-11-24T05:20:20.989Z,97756.53
2022-11-24T05:22:49.459Z,97751.53
2022-11-24T05:25:18.239Z,97747.31
2022-11-24T05:27:48.009Z,97757.34
2022-11-24T05:30:16.346Z,97758.34
2022-11-24T05:32:44.629Z,97760.81
2022-11-24T05:35:14.082Z,97761.53
2022-11-24T05:37:42.322Z,97763.31
2022-11-24T05:40:11.554Z,97766.78
2022-11-24T05:42:47.236Z,97775.38
2022-11-24T05:45:19.965Z,97771.16
2022-11-24T05:47:49.414Z,97772.88
2022-11-24T05:50:21.273Z,97761.53
2022-11-24T05:52:50.293Z,97762.34
2022-11-24T05:55:20.556Z,97769.13
2022-11-24T05:57:49.042Z,97761.44
2022-11-24T06:00:20.136Z,97759.88
2022-11-24T06:02:49.499Z,97759.88
2022-11-24T06:05:18.848Z,97754.03
2022-11-24T06:07:47.292Z,97759.78
2022-11-24T06:10:16.863Z,97758.13
2022-11-24T06:12:45.433Z,97760.56
2022-11-24T06:15:14.149Z,97756.97
2022-11-24T06:17:43.920Z,97756.41
2022-11-24T06:20:13.146Z,97760.56
2022-11-24T06:22:41.641Z,97770.94
2022-11-24T06:25:10.782Z,97770.81
2022-11-24T06:27:39.206Z,97780.28
2022-11-24T06:30:08.725Z,97781.00
2022-11-24T06:32:37.189Z,97789.63
2022-11-24T06:35:07.711Z,97784.66
2022-11-24T06:37:37.906Z,97794.75
2022-11-24T06:40:08.941Z,97794.91
2022-11-24T06:42:37.825Z,97801.81
2022-11-24T06:45:09.616Z,97800.78
2022-11-24T06:47:38.484Z,97801.56
2022-11-24T06:50:10.962Z,97805.72
2022-11-24T06:52:39.336Z,97814.81
2022-11-24T06:55:09.419Z,97802.63
2022-11-24T06:57:37.873Z,97807.72
2022-11-24T07:00:08.547Z,97809.16
2022-11-24T07:02:41.101Z,97810.53
2022-11-24T07:05:14.131Z,97815.38
2022-11-24T07:07:43.073Z,97825.63
2022-11-24T07:10:11.700Z,97838.19
2022-11-24T07:12:39.986Z,97834.00
2022-11-24T07:15:10.070Z,97840.47
2022-11-24T07:17:39.249Z,97845.59
2022-11-24T07:20:09.721Z,97849.06
2022-11-24T07:22:39.414Z,97855.84
2022-11-24T07:25:09.966Z,97861.16
2022-11-24T07:27:38.413Z,97868.84
2022-11-24T07:30:08.796Z,97868.75
2022-11-24T07:32:37.331Z,97878.19
2022-11-24T07:35:07.167Z,97884.16
2022-11-24T07:37:35.665Z,97886.09
2022-11-24T07:40:07.035Z,97898.72
2022-11-24T07:42:35.544Z,97908.97
2022-11-24T07:45:03.947Z,97902.31
2022-11-24T07:47:32.426Z,97908.25
2022-11-24T07:50:00.779Z,97914.34
2022-11-24T07:52:29.527Z,97913.59
2022-11-24T07:54:57.861Z,97919.47
2022-11-24T07:57:29.182Z,97928.06
2022-11-24T07:59:57.712Z,97935.84
2022-11-24T08:02:26.273Z,97933.97
2022-11-24T08:04:54.602Z,97930.72
2022-11-24T08:07:23.252Z,97925.50
2022-11-24T08:09:52.138Z,97908.47
2022-11-24T08:12:22.271Z,97905.75
2022-11-24T08:14:52.253Z,97906.66
2022-11-24T08:17:20.782Z,97912.44
2022-11-24T08:19:49.344Z,97918.41
2022-11-24T08:22:17.873Z,97917.56
2022-11-24T08:24:48.667Z,97915.88
2022-11-24T08:27:17.716Z,97922.44
2022-11-24T08:29:46.687Z,97918.78
2022-11-24T08:32:22.048Z,97926.66
2022-11-24T08:34:52.217Z,97928.38
2022-11-24T08:37:26.143Z,97937.81
2022-11-24T08:39:54.563Z,97932.28
2022-11-24T08:42:23.070Z,97933.69
2022-11-24T08:44:58.616Z,97933.69
2022-11-24T08:47:29.045Z,97950.56
2022-11-24T08:49:57.370Z,97958.47
2022-11-24T08:52:25.958Z,97955.91
2022-11-24T08:54:54.291Z,97955.91
2022-11-24T08:57:23.000Z,97948.00
2022-11-24T08:59:51.596Z,97948.84
2022-11-24T09:02:19.908Z,97947.34
2022-11-24T09:04:49.767Z,97960.13
2022-11-24T09:07:18.903Z,97967.94
2022-11-24T09:09:47.295Z,97952.56
2022-11-24T09:12:15.874Z,97955.00
2022-11-24T09:14:44.453Z,97959.22
2022-11-24T09:17:13.150Z,97959.34
2022-11-24T09:19:41.600Z,97969.63
2022-11-24T09:22:11.284Z,97966.00
2022-11-24T09:24:39.780Z,97974.41
2022-11-24T09:27:08.170Z,97986.09
2022-11-24T09:29:36.996Z,97994.75
2022-11-24T09:32:07.124Z,97991.19
2022-11-24T09:34:36.093Z,97993.91
2022-11-24T09:37:04.488Z,97996.44
2022-11-24T09:39:34.823Z,98005.16
2022-11-24T09:42:15.649Z,97994.06
2022-11-24T09:45:12.992Z,98002.41
2022-11-24T09:47:53.224Z,98017.53
2022-11-24T09:50:24.521Z,98031.97
2022-11-24T09:53:01.188Z,98018.22
2022-11-24T09:55:43.479Z,98022.41
2022-11-24T09:58:31.150Z,98027.78
2022-11-24T10:01:06.263Z,98023.31
2022-11-24T10:03:42.040Z,98031.06
2022-11-24T10:06:23.755Z,98035.31
2022-11-24T10:09:16.136Z,98033.59
2022-11-24T10:11:56.534Z,98037.59
2022-11-24T10:15:09.212Z,98032.34
2022-11-24T10:18:04.552Z,98036.31
2022-11-24T10:20:53.838Z,98030.91
2022-11-24T10:23:40.809Z,98034.25
2022-11-24T10:26:19.294Z,98030.91
2022-11-24T10:28:54.512Z,98034.97
2022-11-24T10:31:33.821Z,98035.88
2022-11-24T10:34:10.477Z,98040.94
2022-11-24T10:36:46.397Z,98039.81
2022-11-24T10:39:20.990Z,98045.28
2022-11-24T10:41:58.063Z,98049.50
2022-11-24T10:44:27.952Z,98043.25
2022-11-24T10:46:56.506Z,98034.44
2022-11-24T10:49:29.074Z,98045.28
2022-11-24T10:52:13.868Z,98046.59
2022-11-24T10:54:56.981Z,98049.66
2022-11-24T10:57:34.184Z,98043.59
2022-11-24T11:00:32.835Z,98048.63
2022-11-24T11:03:20.787Z,98048.81
2022-11-24T11:05:55.315Z,98047.81
2022-11-24T11:08:27.319Z,98035.66
2022-11-24T11:11:18.061Z,98037.75
2022-11-24T11:14:01.660Z,98037.63
2022-11-24T11:16:36.905Z,98042.78
2022-11-24T11:19:26.020Z,98044.72
2022-11-24T11:22:02.602Z,98053.88
2022-11-24T11:24:31.976Z,98060.63
2022-11-24T11:27:06.455Z,98049.56
2022-11-24T11:35:14.775Z,98033.63
2022-11-24T11:37:44.633Z,98042.06
2022-11-24T11:40:17.492Z,98028.38
2022-11-24T11:43:02.491Z,98031.63
2022-11-24T11:45:37.006Z,98037.59
2022-11-24T11:48:25.774Z,98040.19
2022-11-24T11:51:22.997Z,98041.97
2022-11-24T11:54:00.594Z,98035.22
2022-11-24T11:56:32.578Z,98046.91
2022-11-24T11:59:26.518Z,98036.22
2022-11-24T12:02:39.215Z,98036.56
2022-11-24T12:05:17.860Z,98036.56
2022-11-24T12:08:10.273Z,98034.41
2022-11-24T12:10:48.633Z,98037.16
2022-11-24T12:13:48.517Z,98044.97
2022-11-24T12:16:30.811Z,98042.31
2022-11-24T12:19:19.416Z,98037.06
2022-11-24T12:21:59.852Z,98045.34
2022-11-24T12:24:41.979Z,98043.16
2022-11-24T12:27:24.415Z,98052.78
2022-11-24T12:30:11.001Z,98047.88
2022-11-24T12:33:16.415Z,98052.97
2022-11-24T12:35:47.029Z,98058.34
2022-11-24T12:38:38.641Z,98055.75
2022-11-24T12:41:47.523Z,98064.56
2022-11-24T12:44:35.389Z,98059.41
2022-11-24T12:47:15.447Z,98066.53
2022-11-24T12:49:59.656Z,98056.22
2022-11-24T12:52:35.080Z,98069.56
2022-11-24T12:55:06.302Z,98061.97
2022-11-24T12:57:42.122Z,98066.97
2022-11-24T13:00:21.722Z,98067.91
2022-11-24T13:03:22.371Z,98064.41
2022-11-24T13:05:59.899Z,98065.75
2022-11-24T13:08:29.313Z,98066.97
2022-11-24T13:11:39.353Z,98061.88
2022-11-24T13:14:14.306Z,98056.56
2022-11-24T13:17:21.570Z,98059.16
2022-11-24T13:19:42.472Z,98058.88
2022-11-24T13:22:26.105Z,98060.88
2022-11-24T13:25:23.477Z,98058.03
2022-11-24T13:27:57.471Z,98067.53
2022-11-24T13:31:09.426Z,98066.38
2022-11-24T13:33:39.891Z,98070.47
2022-11-24T13:36:37.416Z,98076.81
2022-11-24T13:39:09.070Z,98073.03
2022-11-24T13:42:42.313Z,98075.38
2022-11-24T13:45:02.021Z,98082.63
2022-11-24T13:47:38.319Z,98084.53
2022-11-24T13:50:23.659Z,98086.19
2022-11-24T13:53:01.043Z,98085.25
2022-11-24T13:55:38.700Z,98084.69
2022-11-24T13:58:32.063Z,98084.69
2022-11-24T14:01:16.186Z,98078.88
2022-11-24T14:04:32.513Z,98083.94
2022-11-24T14:07:08.765Z,98077.47
2022-11-24T14:09:43.629Z,98073.00
2022-11-24T14:12:17.867Z,98069.50
2022-11-24T14:14:48.461Z,98066.91
2022-11-24T14:17:22.940Z,98066.53
2022-11-24T14:19:54.044Z,98067.19
2022-11-24T14:22:26.916Z,98066.91
2022-11-24T14:24:58.955Z,98060.56
2022-11-24T14:27:31.757Z,98066.34
2022-11-24T14:30:04.415Z,98070.38
2022-11-24T14:32:34.475Z,98073.28
2022-11-24T14:35:03.552Z,98063.13
2022-11-24T14:37:32.075Z,98068.63
2022-11-24T14:40:01.808Z,98067.47
2022-11-24T14:42:30.267Z,98076.25
2022-11-24T14:45:03.972Z,98079.09
2022-11-24T14:47:36.381Z,98080.00
2022-11-24T14:50:12.326Z,98090.97
2022-11-24T14:52:47.231Z,98091.84
2022-11-24T14:55:27.826Z,98094.59
2022-11-24T14:57:56.529Z,98097.84
2022-11-24T15:00:30.207Z,98094.44
2022-11-24T15:03:20.286Z,98102.19
2022-11-24T15:05:55.468Z,98102.47
2022-11-24T15:08:25.807Z,98112.69
2022-11-24T15:10:59.835Z,98116.19
2022-11-24T15:13:28.735Z,98110.63
2022-11-24T15:19:17.849Z,98112.06
2022-11-24T15:21:46.514Z,98110.66
2022-11-24T15:24:18.484Z,98114.81
2022-11-24T15:26:47.885Z,98109.75
2022-11-24T15:29:16.650Z,98109.81
2022-11-24T15:31:51.023Z,98115.50
2022-11-24T15:34:22.527Z,98123.56
2022-11-24T15:36:51.315Z,98122.84
2022-11-24T15:39:19.755Z,98123.69
2022-11-24T15:41:48.305Z,98125.75
2022-11-24T15:44:16.638Z,98126.69
2022-11-24T15:46:45.090Z,98129.69
2022-11-24T15:49:13.641Z,98131.94
2022-11-24T15:51:46.125Z,98139.53
2022-11-24T15:54:17.155Z,98135.78
2022-11-24T15:56:45.628Z,98148.19
2022-11-24T15:59:20.335Z,98140.50
2022-11-24T16:01:50.896Z,98142.91
2022-11-24T16:04:19.585Z,98146.31
2022-11-24T16:06:49.546Z,98139.81
2022-11-24T16:09:18.184Z,98148.03
2022-11-24T16:11:46.604Z,98149.00
2022-11-24T16:14:15.285Z,98145.59
2022-11-24T16:16:45.181Z,98144.00
2022-11-24T16:19:15.747Z,98149.25
2022-11-24T16:21:44.107Z,98156.97
2022-11-24T16:24:14.058Z,98148.66
2022-11-24T16:26:42.666Z,98151.38
2022-11-24T16:29:11.369Z,98156.00
2022-11-24T16:31:39.699Z,98155.25
2022-11-24T16:34:08.059Z,98151.81
2022-11-24T16:36:36.578Z,98154.78
2022-11-24T16:39:05.071Z,98151.22
2022-11-24T16:41:34.752Z,98150.53
2022-11-24T16:44:03.475Z,98157.59
2022-11-24T16:46:32.103Z,98158.88
2022-11-24T16:49:01.479Z,98162.38
2022-11-24T16:51:34.684Z,98163.34
2022-11-24T16:54:04.399Z,98166.38
2022-11-24T16:56:34.543Z,98164.69
2022-11-24T16:59:03.148Z,98156.22
2022-11-24T17:01:32.789Z,98164.03
2022-11-24T17:04:01.547Z,98160.00
2022-11-24T17:06:30.016Z,98160.00
2022-11-24T17:08:58.350Z,98167.13
2022-11-24T17:11:29.080Z,98156.06
2022-11-24T17:13:59.624Z,98153.63
2022-11-24T17:16:29.427Z,98159.69
2022-11-24T17:18:58.835Z,98159.81
2022-11-24T17:21:28.790Z,98171.19
2022-11-24T17:23:59.004Z,98168.22
2022-11-24T17:26:28.614Z,98163.13
2022-11-24T17:28:59.036Z,98176.22
2022-11-24T17:31:30.911Z,98168.56
2022-11-24T17:34:01.865Z,98163.19
2022-11-24T17:36:33.543Z,98169.41
2022-11-24T17:39:04.395Z,98164.56
2022-11-24T17:41:33.959Z,98162.16
2022-11-24T17:44:03.884Z,98166.47
2022-11-24T17:46:32.596Z,98165.78
2022-11-24T17:49:01.070Z,98162.72
2022-11-24T17:51:29.354Z,98165.41
2022-11-24T17:53:58.269Z,98166.34
2022-11-24T17:56:28.253Z,98161.41
2022-11-24T17:58:58.493Z,98162.56
2022-11-24T18:01:30.314Z,98165.47
2022-11-24T18:03:59.253Z,98166.44
2022-11-24T18:06:29.078Z,98174.56
2022-11-24T18:08:58.538Z,98181.78
2022-11-24T18:11:31.835Z,98179.47
2022-11-24T18:14:03.228Z,98179.63
2022-11-24T18:16:35.362Z,98181.41
2022-11-24T18:19:10.678Z,98179.78
2022-11-24T18:21:40.034Z,98178.19
2022-11-24T18:24:09.378Z,98174.84
2022-11-24T18:26:37.882Z,98173.59
2022-11-24T18:29:06.653Z,98171.25
2022-11-24T18:31:36.452Z,98177.44
2022-11-24T18:34:06.660Z,98177.44
2022-11-24T18:36:35.673Z,98184.50
2022-11-24T18:39:06.165Z,98168.31
2022-11-24T18:41:34.736Z,98162.34
2022-11-24T18:44:07.549Z,98165.94
2022-11-24T18:46:38.207Z,98167.91
2022-11-24T18:49:07.541Z,98157.59
2022-11-24T18:51:36.107Z,98166.97
2022-11-24T18:54:05.376Z,98159.56
2022-11-24T18:56:34.175Z,98161.63
2022-11-24T18:59:02.469Z,98161.63
2022-11-24T19:01:32.164Z,98163.50
2022-11-24T19:04:03.342Z,98164.41
2022-11-24T19:06:33.525Z,98166.47
2022-11-24T19:09:04.757Z,98166.53
2022-11-24T19:11:36.270Z,98165.72
2022-11-24T19:14:06.748Z,98157.16
2022-11-24T19:16:35.868Z,98161.41
2022-11-24T19:19:06.021Z,98170.16
2022-11-24T19:21:37.211Z,98174.38
2022-11-24T19:24:06.931Z,98167.97
2022-11-24T19:26:36.004Z,98174.88
2022-11-24T19:29:05.848Z,98170.56
2022-11-24T19:31:34.875Z,98173.59
2022-11-24T19:34:05.823Z,98173.63
2022-11-24T19:36:34.319Z,98170.22
2022-11-24T19:39:04.671Z,98169.63
2022-11-24T19:41:33.983Z,98167.25
2022-11-24T19:44:02.438Z,98164.75
2022-11-24T19:46:30.954Z,98162.09
2022-11-24T19:49:02.349Z,98150.28
2022-11-24T19:51:34.688Z,98158.00
2022-11-24T19:54:04.048Z,98158.78
2022-11-24T19:56:35.879Z,98157.81
2022-11-24T19:59:05.483Z,98160.25
2022-11-24T20:01:37.341Z,98157.59
2022-11-24T20:04:08.213Z,98159.31
2022-11-24T20:06:40.900Z,98151.63
2022-11-24T20:09:11.982Z,98150.72
2022-11-24T20:11:41.578Z,98153.28
2022-11-24T20:14:13.801Z,98148.16
2022-11-24T20:16:42.560Z,98148.28
2022-11-24T20:19:16.298Z,98144.03
2022-11-24T20:21:49.297Z,98151.09
2022-11-24T20:24:20.649Z,98156.22
2022-11-24T20:26:51.941Z,98153.84
2022-11-24T20:29:21.020Z,98152.88
2022-11-24T20:31:52.069Z,98157.22
2022-11-24T20:34:21.747Z,98164.25
2022-11-24T20:36:53.594Z,98162.66
2022-11-24T20:39:26.235Z,98155.25
2022-11-24T20:41:55.696Z,98161.59
2022-11-24T20:44:26.528Z,98166.94
2022-11-24T20:46:59.814Z,98161.16
2022-11-24T20:49:28.824Z,98158.69
2022-11-24T20:51:58.490Z,98159.69
2022-11-24T20:54:27.001Z,98158.22
2022-11-24T20:56:55.667Z,98151.41
2022-11-24T20:59:25.874Z,98155.75
2022-11-24T21:01:55.385Z,98150.78
2022-11-24T21:04:27.043Z,98153.31
2022-11-24T21:06:55.794Z,98156.00
2022-11-24T21:09:27.189Z,98150.38
2022-11-24T21:11:55.865Z,98153.16
2022-11-24T21:14:24.766Z,98153.50
2022-11-24T21:16:53.143Z,98148.63
2022-11-24T21:19:21.728Z,98146.31
2022-11-24T21:21:50.316Z,98148.91
2022-11-24T21:24:21.485Z,98144.69
2022-11-24T21:26:52.421Z,98142.13
2022-11-24T21:29:23.595Z,98135.44
2022-11-24T21:31:52.344Z,98133.78
2022-11-24T21:34:20.977Z,98136.38
2022-11-24T21:36:49.377Z,98133.78
2022-11-24T21:39:18.509Z,98131.25
2022-11-24T21:41:47.539Z,98139.78
2022-11-24T21:44:17.518Z,98138.81
2022-11-24T21:46:52.730Z,98145.75
2022-11-24T21:49:24.184Z,98143.31
2022-11-24T21:51:55.889Z,98141.81
2022-11-24T21:54:24.684Z,98146.22
2022-11-24T21:56:55.447Z,98142.97
2022-11-24T21:59:25.258Z,98140.41
2022-11-24T22:01:53.808Z,98141.41
2022-11-24T22:04:22.264Z,98143.84
2022-11-24T22:06:50.594Z,98137.13
2022-11-24T22:09:19.253Z,98150.06
2022-11-24T22:11:49.037Z,98140.69
2022-11-24T22:14:17.566Z,98144.16
2022-11-24T22:16:47.306Z,98146.06
2022-11-24T22:19:15.820Z,98151.19
2022-11-24T22:21:44.140Z,98150.34
2022-11-24T22:24:13.092Z,98145.44
2022-11-24T22:26:41.470Z,98150.75
2022-11-24T22:29:10.134Z,98148.19
2022-11-24T22:31:38.405Z,98150.84
2022-11-24T22:34:08.379Z,98157.03
2022-11-24T22:36:37.641Z,98160.44
2022-11-24T22:39:07.238Z,98155.38
2022-11-24T22:41:36.675Z,98152.28
2022-11-24T22:44:06.091Z,98152.41
2022-11-24T22:46:34.916Z,98159.38
2022-11-24T22:49:03.566Z,98148.38
2022-11-24T22:51:35.269Z,98151.13
2022-11-24T22:54:05.651Z,98148.63
2022-11-24T22:56:35.181Z,98153.00
2022-11-24T22:59:04.543Z,98161.63
2022-11-24T23:01:34.362Z,98160.72
2022-11-24T23:04:03.843Z,98159.06
2022-11-24T23:06:34.841Z,98169.38
2022-11-24T23:09:04.970Z,98164.22
2022-11-24T23:11:38.481Z,98160.91
2022-11-24T23:14:09.329Z,98160.13
2022-11-24T23:16:37.951Z,98155.03
2022-11-24T23:19:06.812Z,98165.09
2022-11-24T23:21:39.197Z,98164.13
2022-11-24T23:24:09.642Z,98167.44
2022-11-24T23:26:40.549Z,98162.25
2022-11-24T23:29:11.152Z,98163.97
2022-11-24T23:31:40.693Z,98170.78
2022-11-24T23:34:09.973Z,98170.13
2022-11-24T23:36:39.932Z,98168.72
2022-11-24T23:39:11.936Z,98167.19
2022-11-24T23:41:40.435Z,98166.53
2022-11-24T23:44:09.094Z,98167.44
2022-11-24T23:46:38.392Z,98170.13
2022-11-24T23:49:06.726Z,98167.66
2022-11-24T23:51:35.452Z,98175.38
2022-11-24T23:54:09.568Z,98163.56
2022-11-24T23:56:37.972Z,98167.75
2022-11-24T23:59:06.995Z,98166.19
